Time;durP1;ratioP1;P1;durP2;ratioP2;P2;SDS_P1;SDS_P2;PMS_P1;PMS_P2;Temp;Humidity;BMP_temperature;BMP_pressure;BME280_temperature;BME280_humidity;BME280_pressure;Samples;Min_cycle;Max_cycle;Signal;HPM_P1;HPM_P2
2024/03/04 00:01:29;;;;;;;4.78;2.10;;;;;;;7.53;100.00;97872.34;5072926;28;20437;-45
2024/03/04 00:03:55;;;;;;;4.15;3.75;;;;;;;7.67;100.00;97881.78;5071702;28;20024;-46
2024/03/04 00:06:21;;;;;;;3.85;1.95;;;;;;;7.79;100.00;97887.22;5073424;28;20490;-46
2024/03/04 00:08:47;;;;;;;4.97;3.78;;;;;;;7.90;100.00;97883.19;5072904;28;20025;-45
2024/03/04 00:11:13;;;;;;;4.20;2.50;;;;;;;7.92;100.00;97881.97;5071487;28;20457;-45
2024/03/04 00:13:39;;;;;;;3.92;2.08;;;;;;;8.02;100.00;97886.78;5072813;28;20055;-45
2024/03/04 00:16:05;;;;;;;3.95;2.30;;;;;;;8.09;100.00;97891.97;5071373;28;20491;-45
2024/03/04 00:18:31;;;;;;;26.30;23.73;;;;;;;8.18;100.00;97901.22;5072665;28;20397;-45
2024/03/04 00:20:58;;;;;;;7.28;5.70;;;;;;;8.28;100.00;97903.41;5071035;28;20411;-45
2024/03/04 00:23:24;;;;;;;5.85;2.65;;;;;;;8.29;100.00;97903.22;5071887;28;20498;-45
2024/03/04 00:25:50;;;;;;;6.60;3.72;;;;;;;8.19;100.00;97900.22;5071228;28;20077;-46
2024/03/04 00:28:15;;;;;;;15.35;13.88;;;;;;;8.20;100.00;97907.06;5072477;28;20046;-46
2024/03/04 00:30:44;;;;;;;17.25;15.35;;;;;;;8.22;100.00;97901.63;5072466;28;20027;-45
2024/03/04 00:33:10;;;;;;;5.78;3.85;;;;;;;8.24;100.00;97910.06;5072327;28;20024;-45
2024/03/04 00:35:36;;;;;;;5.82;3.40;;;;;;;8.23;100.00;97903.22;5072279;28;20502;-46
2024/03/04 00:38:02;;;;;;;5.95;3.40;;;;;;;8.27;100.00;97909.63;5071999;28;20092;-46
2024/03/04 00:40:28;;;;;;;5.63;4.80;;;;;;;8.32;100.00;97913.25;5070941;28;20040;-45
2024/03/04 00:42:54;;;;;;;9.10;6.15;;;;;;;8.46;100.00;97913.25;5072275;28;20039;-45
2024/03/04 00:45:20;;;;;;;6.07;4.38;;;;;;;8.43;100.00;97922.31;5070868;28;20036;-45
2024/03/04 00:47:46;;;;;;;5.53;4.50;;;;;;;8.44;100.00;97926.53;5072160;28;20021;-45
2024/03/04 00:50:12;;;;;;;4.97;3.47;;;;;;;8.44;100.00;97917.91;5072364;28;20067;-45
2024/03/04 00:52:38;;;;;;;10.68;9.35;;;;;;;8.37;100.00;97918.69;5072091;28;20398;-45
2024/03/04 00:55:05;;;;;;;6.97;5.00;;;;;;;8.48;100.00;97932.16;5070654;28;20036;-45
2024/03/04 00:57:31;;;;;;;7.82;6.15;;;;;;;8.58;100.00;97940.38;5054058;28;20404;-45
2024/03/04 00:59:57;;;;;;;24.67;22.30;;;;;;;8.43;100.00;97932.78;5070773;28;20508;-44
2024/03/04 01:02:23;;;;;;;11.95;10.27;;;;;;;8.33;100.00;97937.56;5070612;28;20521;-44
2024/03/04 01:04:49;;;;;;;9.15;5.32;;;;;;;8.29;100.00;97939.00;5072007;28;20060;-44
2024/03/04 01:07:15;;;;;;;9.52;7.55;;;;;;;8.28;100.00;97934.78;5070618;28;20494;-44
2024/03/04 01:09:41;;;;;;;175.88;160.15;;;;;;;8.30;100.00;97940.63;5071903;28;20086;-45
2024/03/04 01:12:07;;;;;;;13.73;12.43;;;;;;;8.26;100.00;97934.97;5071848;28;20073;-44
2024/03/04 01:14:33;;;;;;;7.93;6.47;;;;;;;8.28;100.00;97935.59;5071806;28;20410;-45
2024/03/04 01:16:58;;;;;;;6.38;5.30;;;;;;;8.33;100.00;97935.78;5071716;28;20040;-44
2024/03/04 01:19:25;;;;;;;19.17;16.60;;;;;;;8.37;100.00;97933.53;5070498;28;20120;-45
2024/03/04 01:21:50;;;;;;;9.13;5.07;;;;;;;8.44;100.00;97937.00;5070479;28;20500;-44
2024/03/04 01:24:17;;;;;;;13.70;12.25;;;;;;;8.43;100.00;97930.16;5071646;28;20120;-45
2024/03/04 01:26:44;;;;;;;8.27;6.22;;;;;;;8.34;100.00;97940.00;5071612;28;20032;-44
2024/03/04 01:29:10;;;;;;;401.75;361.17;;;;;;;8.29;100.00;97939.00;5071644;28;20054;-45
2024/03/04 01:31:36;;;;;;;39.97;35.70;;;;;;;8.34;100.00;97937.38;5071597;28;20036;-45
2024/03/04 01:34:05;;;;;;;15.13;11.38;;;;;;;8.40;100.00;97941.00;5073107;28;20032;-45
2024/03/04 01:36:31;;;;;;;36.33;32.67;;;;;;;8.37;100.00;97939.59;5075492;28;20045;-45
2024/03/04 01:38:57;;;;;;;28.73;26.13;;;;;;;8.46;100.00;97939.41;5074525;28;20028;-45
2024/03/04 01:41:23;;;;;;;6.88;5.18;;;;;;;8.50;100.00;97938.78;5075632;28;20032;-44
2024/03/04 01:43:50;;;;;;;6.75;5.30;;;;;;;8.38;100.00;97954.25;5075705;28;20442;-45
2024/03/04 01:46:17;;;;;;;9.35;7.38;;;;;;;8.27;100.00;97939.22;5075636;28;20107;-45
2024/03/04 01:48:43;;;;;;;9.40;8.10;;;;;;;8.15;100.00;97941.66;5075596;28;20032;-45
2024/03/04 01:51:10;;;;;;;7.70;6.82;;;;;;;8.10;100.00;97941.44;5075416;28;20020;-45
2024/03/04 01:53:38;;;;;;;12.48;8.77;;;;;;;8.07;100.00;97943.63;5057602;28;20029;-45
2024/03/04 01:56:06;;;;;;;40.28;36.25;;;;;;;8.11;100.00;97942.22;5075420;28;20478;-45
2024/03/04 01:58:36;;;;;;;11.25;9.38;;;;;;;8.14;100.00;97947.88;5074041;28;20107;-45
2024/03/04 02:01:05;;;;;;;9.30;6.55;;;;;;;8.11;100.00;97940.44;5075244;28;20113;-45
2024/03/04 02:03:31;;;;;;;5.50;4.97;;;;;;;8.04;100.00;97947.47;5075279;28;20025;-45
2024/03/04 02:05:59;;;;;;;10.23;5.97;;;;;;;7.93;100.00;97945.47;5073909;28;20036;-45
2024/03/04 02:08:24;;;;;;;58.63;52.53;;;;;;;7.91;100.00;97953.50;5075202;28;20498;-45
2024/03/04 02:10:54;;;;;;;34.47;30.90;;;;;;;7.93;100.00;97967.19;5075140;28;20025;-45
2024/03/04 02:13:20;;;;;;;7.70;6.95;;;;;;;8.03;100.00;97956.34;5073795;28;20028;-45
2024/03/04 02:15:47;;;;;;;7.55;5.90;;;;;;;8.07;100.00;97965.38;5074064;28;20449;-45
2024/03/04 02:18:13;;;;;;;7.25;6.50;;;;;;;8.06;100.00;97962.97;5073645;28;20048;-45
2024/03/04 02:20:42;;;;;;;12.57;8.80;;;;;;;8.09;100.00;97965.16;5074888;28;20060;-45
2024/03/04 02:23:09;;;;;;;9.68;6.45;;;;;;;8.07;100.00;97973.22;5073872;28;20036;-45
2024/03/04 02:25:35;;;;;;;27.20;24.33;;;;;;;8.09;100.00;97973.81;5074818;28;20024;-46
2024/03/04 02:28:04;;;;;;;14.07;12.57;;;;;;;8.20;100.00;97964.56;5056833;28;20032;-45
2024/03/04 02:30:33;;;;;;;11.25;8.57;;;;;;;8.20;100.00;97961.94;5074716;28;20056;-45
2024/03/04 02:33:04;;;;;;;7.38;6.43;;;;;;;8.17;100.00;97963.16;5074664;28;20035;-45
2024/03/04 02:35:33;;;;;;;10.00;5.78;;;;;;;8.27;100.00;97961.91;5073329;28;20044;-45
2024/03/04 02:38:02;;;;;;;22.88;20.70;;;;;;;8.33;100.00;97971.56;5074406;28;20044;-45
2024/03/04 02:40:28;;;;;;;16.45;13.60;;;;;;;8.22;100.00;97975.59;5074523;28;20051;-45
2024/03/04 02:42:54;;;;;;;12.35;11.10;;;;;;;8.10;100.00;97980.63;5073263;28;20449;-45
2024/03/04 02:45:20;;;;;;;24.45;18.58;;;;;;;8.12;100.00;97980.44;5072073;28;20403;-45
2024/03/04 02:47:46;;;;;;;10.18;8.40;;;;;;;8.11;100.00;97982.25;5074467;28;20034;-45
2024/03/04 02:50:12;;;;;;;22.55;9.65;;;;;;;7.99;100.00;97978.66;5074433;28;20107;-45
2024/03/04 02:52:37;;;;;;;73.78;65.38;;;;;;;7.92;100.00;97962.94;5074428;28;20056;-45
2024/03/04 02:55:04;;;;;;;13.95;10.90;;;;;;;7.97;100.00;97971.00;5074331;28;20086;-45
2024/03/04 02:57:30;;;;;;;15.68;12.98;;;;;;;7.99;100.00;97969.00;5074236;28;20565;-45
2024/03/04 02:59:56;;;;;;;27.30;24.55;;;;;;;8.03;100.00;97956.34;5072959;28;20116;-45
2024/03/04 03:02:22;;;;;;;13.00;11.40;;;;;;;8.05;100.00;97964.78;5072892;28;20103;-45
2024/03/04 03:04:48;;;;;;;7.93;6.60;;;;;;;8.05;100.00;97962.16;5072896;28;20498;-44
2024/03/04 03:07:14;;;;;;;7.78;6.90;;;;;;;7.98;100.00;97959.53;5074117;28;20020;-45
2024/03/04 03:09:39;;;;;;;10.25;9.23;;;;;;;8.09;100.00;97960.75;5074074;28;20029;-45
2024/03/04 03:12:05;;;;;;;15.93;14.30;;;;;;;8.20;100.00;97962.72;5072780;28;20033;-45
2024/03/04 03:14:35;;;;;;;82.10;73.88;;;;;;;8.26;100.00;97968.97;5073096;28;20035;-45
2024/03/04 03:17:00;;;;;;;57.65;45.92;;;;;;;8.26;100.00;97962.94;5072582;28;20028;-45
2024/03/04 03:19:26;;;;;;;120.93;90.80;;;;;;;8.32;100.00;97959.50;5072571;28;20070;-45
2024/03/04 03:21:53;;;;;;;109.53;93.90;;;;;;;8.38;100.00;97961.31;5072583;28;20107;-45
2024/03/04 03:24:19;;;;;;;248.57;207.82;;;;;;;8.42;100.00;97959.94;5072428;28;20029;-45
2024/03/04 03:26:46;;;;;;;391.25;309.13;;;;;;;8.48;100.00;97964.34;5073736;28;20016;-44
2024/03/04 03:29:15;;;;;;;242.82;185.02;;;;;;;8.48;100.00;97971.38;5073652;28;20036;-45
2024/03/04 03:31:41;;;;;;;58.28;44.13;;;;;;;8.40;100.00;97972.38;5072653;28;20033;-45
2024/03/04 03:34:07;;;;;;;57.55;49.95;;;;;;;8.43;100.00;97985.09;5073672;28;20029;-45
2024/03/04 03:36:35;;;;;;;59.25;47.50;;;;;;;8.51;100.00;97984.88;5071969;28;20574;-44
2024/03/04 03:39:04;;;;;;;61.17;54.55;;;;;;;8.54;100.00;97994.91;5073492;28;20052;-44
2024/03/04 03:41:30;;;;;;;56.95;50.88;;;;;;;8.41;100.00;97994.94;5073457;28;20100;-45
2024/03/04 03:43:56;;;;;;;12.75;10.93;;;;;;;8.33;100.00;97993.31;5073521;28;20107;-44
2024/03/04 03:46:22;;;;;;;8.13;6.05;;;;;;;8.32;100.00;98009.97;5072090;28;20032;-44
2024/03/04 03:48:48;;;;;;;7.60;5.70;;;;;;;8.43;100.00;98002.56;5073374;28;20059;-44
2024/03/04 03:51:13;;;;;;;5.97;5.25;;;;;;;8.45;100.00;98011.00;5073282;28;20021;-44
2024/03/04 03:53:39;;;;;;;7.40;4.43;;;;;;;8.47;100.00;98016.84;5073241;28;20021;-44
2024/03/04 03:56:05;;;;;;;7.72;6.15;;;;;;;8.51;100.00;98026.69;5071933;28;20056;-44
2024/03/04 03:58:32;;;;;;;7.95;7.15;;;;;;;8.50;100.00;98032.13;5071739;28;20031;-44
2024/03/04 04:00:57;;;;;;;10.85;7.18;;;;;;;8.45;100.00;98027.53;5073069;28;20126;-44
2024/03/04 04:03:23;;;;;;;9.50;4.03;;;;;;;8.46;100.00;98034.34;5071983;28;20032;-44
2024/03/04 04:05:49;;;;;;;6.57;4.07;;;;;;;8.46;100.00;98031.72;5073026;28;20016;-44
2024/03/04 04:08:14;;;;;;;4.15;3.38;;;;;;;8.45;100.00;98047.59;5071638;28;20023;-44
2024/03/04 04:10:40;;;;;;;11.10;6.50;;;;;;;8.40;100.00;98046.38;5072871;28;20025;-44
2024/03/04 04:13:06;;;;;;;3.08;2.78;;;;;;;8.28;100.00;98052.41;5071807;28;20085;-44
2024/03/04 04:15:32;;;;;;;5.15;3.80;;;;;;;8.23;100.00;98060.03;5072755;28;20021;-44
2024/03/04 04:17:58;;;;;;;4.90;4.20;;;;;;;8.26;100.00;98070.91;5071397;28;20020;-44
2024/03/04 04:20:27;;;;;;;10.48;9.15;;;;;;;8.43;100.00;98065.31;5072859;28;20108;-44
2024/03/04 04:22:53;;;;;;;11.02;9.70;;;;;;;8.53;100.00;98056.06;5071321;28;20032;-44
2024/03/04 04:25:20;;;;;;;6.75;3.67;;;;;;;8.55;100.00;98050.63;5072559;28;20024;-44
2024/03/04 04:27:46;;;;;;;20.48;18.60;;;;;;;8.47;100.00;98048.22;5072468;28;20036;-44
2024/03/04 04:30:12;;;;;;;8.70;7.90;;;;;;;8.43;100.00;98041.78;5072487;28;20036;-44
2024/03/04 04:32:38;;;;;;;5.65;4.20;;;;;;;8.29;100.00;98040.94;5071124;28;20024;-44
2024/03/04 04:35:04;;;;;;;5.72;3.55;;;;;;;8.28;100.00;98044.59;5072408;28;20025;-44
2024/03/04 04:37:31;;;;;;;4.57;3.63;;;;;;;8.29;100.00;98041.78;5070921;28;20106;-44
2024/03/04 04:39:57;;;;;;;5.68;3.67;;;;;;;8.30;100.00;98050.41;5071274;28;20491;-44
2024/03/04 04:42:23;;;;;;;6.13;4.00;;;;;;;8.33;100.00;98048.19;5072249;28;20059;-44
2024/03/04 04:44:49;;;;;;;7.82;5.97;;;;;;;8.41;100.00;98049.84;5071258;28;20115;-44
2024/03/04 04:47:14;;;;;;;4.90;3.90;;;;;;;8.45;100.00;98061.50;5070923;28;20056;-44
2024/03/04 04:49:41;;;;;;;6.25;3.63;;;;;;;8.32;100.00;98064.09;5072238;28;20021;-44
2024/03/04 04:52:07;;;;;;;6.95;4.05;;;;;;;8.29;100.00;98057.47;5070814;28;20028;-44
2024/03/04 04:54:32;;;;;;;4.97;4.28;;;;;;;8.40;100.00;98066.50;5070855;28;20028;-44
2024/03/04 04:56:58;;;;;;;7.68;6.90;;;;;;;8.43;100.00;98073.97;5072012;28;20023;-44
2024/03/04 04:59:24;;;;;;;11.15;9.50;;;;;;;8.44;100.00;98072.97;5072046;28;20105;-44
2024/03/04 05:01:49;;;;;;;5.25;4.20;;;;;;;8.50;100.00;98072.16;5072009;28;20032;-44
2024/03/04 05:04:16;;;;;;;5.68;4.50;;;;;;;8.65;100.00;98068.53;5071001;28;20031;-44
2024/03/04 05:06:42;;;;;;;8.40;7.15;;;;;;;8.74;100.00;98075.16;5054096;28;20379;-45
2024/03/04 05:09:08;;;;;;;7.13;4.50;;;;;;;8.76;100.00;98073.16;5071328;28;20031;-44
2024/03/04 05:11:34;;;;;;;6.13;3.55;;;;;;;8.80;100.00;98072.53;5072155;28;20021;-45
2024/03/04 05:14:00;;;;;;;7.07;5.30;;;;;;;8.91;100.00;98073.69;5070599;28;20027;-44
2024/03/04 05:16:26;;;;;;;5.57;4.15;;;;;;;8.93;100.00;98078.75;5071753;28;20020;-44
2024/03/04 05:18:52;;;;;;;7.90;3.80;;;;;;;8.96;100.00;98068.66;5071816;28;20023;-45
2024/03/04 05:21:17;;;;;;;7.78;7.05;;;;;;;8.97;100.00;98083.38;5070428;28;20021;-45
2024/03/04 05:23:43;;;;;;;7.88;4.15;;;;;;;9.00;100.00;98082.97;5071733;28;20025;-45
2024/03/04 05:26:09;;;;;;;6.15;3.95;;;;;;;8.93;100.00;98087.41;5070417;28;20025;-45
2024/03/04 05:28:34;;;;;;;7.15;4.15;;;;;;;8.91;100.00;98094.63;5070439;28;20020;-45
2024/03/04 05:31:00;;;;;;;12.05;8.57;;;;;;;8.94;100.00;98096.06;5070411;28;20035;-46
2024/03/04 05:33:26;;;;;;;6.35;4.50;;;;;;;8.91;100.00;98107.72;5070380;28;20035;-45
2024/03/04 05:35:52;;;;;;;8.63;5.47;;;;;;;8.97;100.00;98095.63;5071572;28;20025;-45
2024/03/04 05:38:17;;;;;;;11.02;9.95;;;;;;;9.02;100.00;98105.53;5053278;28;20503;-45
2024/03/04 05:40:44;;;;;;;32.78;29.80;;;;;;;9.05;100.00;98100.66;5071613;28;20486;-45
2024/03/04 05:43:10;;;;;;;5.60;5.10;;;;;;;9.10;100.00;98107.91;5071504;28;20025;-46
2024/03/04 05:45:35;;;;;;;6.10;3.65;;;;;;;9.03;100.00;98107.09;5071571;28;20028;-46
2024/03/04 05:48:01;;;;;;;5.15;4.03;;;;;;;8.95;100.00;98111.56;5071521;28;20058;-46
2024/03/04 05:50:27;;;;;;;9.98;7.22;;;;;;;8.99;100.00;98120.63;5071748;28;20114;-46
2024/03/04 05:52:53;;;;;;;8.00;5.63;;;;;;;9.08;100.00;98123.03;5071542;28;20077;-46
2024/03/04 05:55:19;;;;;;;6.78;4.97;;;;;;;9.10;100.00;98119.19;5071433;28;20032;-46
2024/03/04 05:57:45;;;;;;;10.07;7.03;;;;;;;9.15;100.00;98129.81;5071326;28;20043;-45
2024/03/04 06:00:12;;;;;;;21.70;19.40;;;;;;;9.13;100.00;98134.47;5053577;28;20032;-46
2024/03/04 06:02:44;;;;;;;16.98;7.95;;;;;;;9.03;100.00;98134.09;5070078;28;20031;-46
2024/03/04 06:05:11;;;;;;;20.85;14.60;;;;;;;9.05;100.00;98126.81;5071272;28;20024;-46
2024/03/04 06:07:37;;;;;;;6.95;6.13;;;;;;;9.11;100.00;98140.91;5070045;28;20024;-46
2024/03/04 06:10:03;;;;;;;6.65;5.88;;;;;;;9.11;100.00;98122.59;5071320;28;20029;-46
2024/03/04 06:12:29;;;;;;;17.30;10.77;;;;;;;9.10;100.00;98131.47;5071290;28;20032;-46
2024/03/04 06:14:54;;;;;;;5.97;4.28;;;;;;;9.10;100.00;98136.72;5071274;28;20033;-46
2024/03/04 06:17:20;;;;;;;8.45;4.22;;;;;;;9.08;100.00;98125.63;5071135;28;20020;-46
2024/03/04 06:19:46;;;;;;;7.20;4.32;;;;;;;9.03;100.00;98138.53;5073282;28;20016;-46
2024/03/04 06:22:12;;;;;;;8.90;4.50;;;;;;;9.32;100.00;98132.03;5074935;28;20081;-46
2024/03/04 06:24:39;;;;;;;6.13;4.03;;;;;;;9.49;100.00;98135.00;5074826;28;20122;-46
2024/03/04 06:27:06;;;;;;;11.15;9.95;;;;;;;9.57;100.00;98140.78;5074831;28;20024;-47
2024/03/04 06:29:35;;;;;;;13.05;8.35;;;;;;;9.44;100.00;98143.47;5074743;28;20044;-48
2024/03/04 06:32:01;;;;;;;11.32;8.13;;;;;;;9.34;100.00;98137.88;5073542;28;20035;-48
2024/03/04 06:34:28;;;;;;;8.90;4.20;;;;;;;9.40;100.00;98148.31;5056809;28;20028;-49
2024/03/04 06:36:54;;;;;;;8.70;4.65;;;;;;;9.48;100.00;98149.13;5074436;28;20103;-48
2024/03/04 06:39:20;;;;;;;11.45;5.75;;;;;;;9.54;100.00;98145.66;5074685;28;20028;-48
2024/03/04 06:41:47;;;;;;;11.55;6.35;;;;;;;9.51;100.00;98154.72;5074658;28;20107;-48
2024/03/04 06:44:13;;;;;;;11.20;7.25;;;;;;;9.52;100.00;98158.16;5073240;28;20409;-48
2024/03/04 06:46:39;;;;;;;9.65;4.88;;;;;;;9.59;100.00;98153.69;5074591;28;20103;-48
2024/03/04 06:49:05;;;;;;;17.02;6.25;;;;;;;9.59;100.00;98156.31;5073540;28;20397;-48
2024/03/04 06:51:35;;;;;;;10.20;9.20;;;;;;;9.62;100.00;98166.38;5073100;28;20036;-48
2024/03/04 06:54:04;;;;;;;11.23;9.95;;;;;;;9.62;100.00;98163.78;5074437;28;20028;-49
2024/03/04 06:56:31;;;;;;;13.65;6.30;;;;;;;9.60;100.00;98160.56;5074265;28;20043;-48
2024/03/04 06:59:00;;;;;;;7.43;5.22;;;;;;;9.71;100.00;98172.19;5074236;28;20444;-49
2024/03/04 07:01:27;;;;;;;11.85;7.18;;;;;;;9.83;100.00;98172.34;5074238;28;20398;-49
2024/03/04 07:03:54;;;;;;;6.55;4.47;;;;;;;9.78;100.00;98173.00;5074215;28;20069;-48
2024/03/04 07:06:21;;;;;;;10.93;9.52;;;;;;;9.68;100.00;98177.84;5074105;28;20031;-49
2024/03/04 07:08:46;;;;;;;9.48;5.00;;;;;;;9.60;100.00;98176.28;5072941;28;20025;-48
2024/03/04 07:11:13;;;;;;;11.15;5.50;;;;;;;9.53;100.00;98178.91;5074081;28;20506;-49
2024/03/04 07:13:40;;;;;;;15.10;6.18;;;;;;;9.58;100.00;98186.16;5074132;28;20148;-49
2024/03/04 07:16:07;;;;;;;15.20;6.47;;;;;;;9.68;100.00;98181.28;5073895;28;20398;-49
2024/03/04 07:18:36;;;;;;;15.00;8.93;;;;;;;9.68;100.00;98186.53;5072571;28;20032;-49
2024/03/04 07:21:02;;;;;;;13.90;8.05;;;;;;;9.63;100.00;98196.81;5074120;28;20402;-49
2024/03/04 07:23:28;;;;;;;21.30;11.05;;;;;;;9.64;100.00;98190.56;5073878;28;20032;-49
2024/03/04 07:25:54;;;;;;;18.75;16.15;;;;;;;9.71;100.00;98198.41;5072486;28;20406;-49
2024/03/04 07:28:20;;;;;;;16.55;5.47;;;;;;;9.69;100.00;98190.75;5073756;28;20056;-49
2024/03/04 07:30:49;;;;;;;18.08;13.20;;;;;;;9.73;100.00;98191.94;5073221;28;20040;-49
2024/03/04 07:33:15;;;;;;;19.20;7.25;;;;;;;9.74;100.00;98193.56;5073735;28;20418;-49
2024/03/04 07:35:41;;;;;;;9.65;5.13;;;;;;;9.78;100.00;98191.34;5073642;28;20117;-47
2024/03/04 07:38:08;;;;;;;8.80;5.50;;;;;;;9.77;100.00;98190.50;5073285;28;20044;-49
2024/03/04 07:40:34;;;;;;;12.07;9.38;;;;;;;9.74;100.00;98182.28;5073760;28;20062;-49
2024/03/04 07:43:02;;;;;;;13.20;11.00;;;;;;;9.68;100.00;98191.75;5072205;28;20032;-49
2024/03/04 07:45:29;;;;;;;17.10;14.13;;;;;;;9.63;100.00;98202.03;5073383;28;20052;-49
2024/03/04 07:47:56;;;;;;;10.25;6.80;;;;;;;9.67;100.00;98198.00;5073365;28;20101;-49
2024/03/04 07:50:23;;;;;;;20.55;13.93;;;;;;;9.62;100.00;98197.00;5073246;28;20058;-49
2024/03/04 07:52:49;;;;;;;14.65;9.05;;;;;;;9.72;100.00;98194.78;5071996;28;20040;-49
2024/03/04 07:55:16;;;;;;;17.10;13.30;;;;;;;9.75;100.00;98196.97;5073203;28;20111;-49
2024/03/04 07:57:43;;;;;;;12.95;8.85;;;;;;;9.80;100.00;98200.59;5071767;28;20486;-49
2024/03/04 08:00:10;;;;;;;13.48;11.90;;;;;;;9.89;100.00;98209.00;5073114;28;20021;-49
2024/03/04 08:02:37;;;;;;;10.88;7.18;;;;;;;9.94;100.00;98206.59;5088776;28;20056;-49
2024/03/04 08:05:05;;;;;;;9.43;7.95;;;;;;;10.00;100.00;98208.38;5072851;28;20111;-47
2024/03/04 08:07:31;;;;;;;13.32;6.20;;;;;;;10.09;100.00;98213.38;5073224;28;20081;-47
2024/03/04 08:09:57;;;;;;;6.28;4.90;;;;;;;10.14;100.00;98203.06;5072844;28;20032;-47
2024/03/04 08:12:23;;;;;;;8.75;4.43;;;;;;;10.24;100.00;98213.94;5072895;28;20050;-46
2024/03/04 08:14:49;;;;;;;10.95;5.00;;;;;;;10.24;100.00;98205.22;5072771;28;20427;-49
2024/03/04 08:17:17;;;;;;;10.57;5.70;;;;;;;10.30;100.00;98204.41;5072701;28;20028;-49
2024/03/04 08:19:46;;;;;;;8.52;5.88;;;;;;;10.33;100.00;98196.16;5072706;28;20055;-49
2024/03/04 08:22:12;;;;;;;10.20;5.65;;;;;;;10.34;100.00;98205.59;5072664;28;20029;-49
2024/03/04 08:24:41;;;;;;;11.00;7.13;;;;;;;10.46;100.00;98203.91;5072632;28;20032;-49
2024/03/04 08:27:07;;;;;;;17.88;15.60;;;;;;;10.64;100.00;98207.66;5072558;28;20031;-49
2024/03/04 08:29:34;;;;;;;5.95;4.30;;;;;;;10.75;100.00;98204.34;5072596;28;20028;-49
2024/03/04 08:32:00;;;;;;;9.30;6.88;;;;;;;10.73;100.00;98207.19;5072501;28;20107;-49
2024/03/04 08:34:29;;;;;;;10.55;5.57;;;;;;;10.71;100.00;98211.06;5072527;28;20032;-49
2024/03/04 08:36:54;;;;;;;7.53;4.75;;;;;;;10.74;100.00;98214.03;5072171;28;20060;-49
2024/03/04 08:39:20;;;;;;;6.22;4.10;;;;;;;10.85;100.00;98217.81;5071185;28;20036;-49
2024/03/04 08:41:46;;;;;;;5.40;4.07;;;;;;;10.90;100.00;98223.19;5072384;28;20504;-49
2024/03/04 08:44:13;;;;;;;6.28;3.95;;;;;;;10.97;100.00;98215.31;5071455;28;20059;-47
2024/03/04 08:46:39;;;;;;;11.20;6.82;;;;;;;10.97;100.00;98212.69;5070932;28;20033;-47
2024/03/04 08:49:05;;;;;;;6.40;5.00;;;;;;;10.95;100.00;98225.22;5072249;28;20028;-47
2024/03/04 08:51:31;;;;;;;8.23;6.03;;;;;;;10.84;100.00;98226.69;5070865;28;20024;-47
2024/03/04 08:53:57;;;;;;;6.38;4.30;;;;;;;10.84;100.00;98220.63;5072179;28;20441;-47
2024/03/04 08:56:27;;;;;;;11.05;4.07;;;;;;;10.96;100.00;98221.56;5072052;28;20024;-46
2024/03/04 08:58:57;;;;;;;9.82;5.53;;;;;;;11.05;100.00;98219.47;5070858;28;20029;-47
2024/03/04 09:01:26;;;;;;;34.45;14.18;;;;;;;11.07;100.00;98223.50;5071989;28;20243;-46
2024/03/04 09:03:53;;;;;;;20.70;10.50;;;;;;;11.06;100.00;98226.31;5072051;28;20086;-49
2024/03/04 09:06:20;;;;;;;29.90;20.42;;;;;;;11.09;100.00;98218.84;5072044;28;20025;-49
2024/03/04 09:08:46;;;;;;;21.33;11.95;;;;;;;11.02;100.00;98219.91;5071910;28;20032;-49
2024/03/04 09:11:13;;;;;;;8.23;5.22;;;;;;;10.95;100.00;98220.75;5071796;28;20052;-49
2024/03/04 09:13:42;;;;;;;16.95;7.60;;;;;;;10.85;100.00;98220.44;5071952;28;20051;-49
2024/03/04 09:16:08;;;;;;;7.45;5.18;;;;;;;10.76;100.00;98219.06;5071837;28;20028;-49
2024/03/04 09:18:34;;;;;;;6.25;3.53;;;;;;;10.83;100.00;98216.41;5071746;28;20031;-49
2024/03/04 09:21:00;;;;;;;9.90;3.97;;;;;;;10.96;100.00;98219.72;5071798;28;20032;-49
2024/03/04 09:23:26;;;;;;;9.57;3.30;;;;;;;10.99;100.00;98234.28;5071805;28;20070;-49
2024/03/04 09:25:52;;;;;;;13.55;3.40;;;;;;;10.91;100.00;98231.91;5071730;28;20028;-49
2024/03/04 09:28:19;;;;;;;12.25;3.53;;;;;;;10.86;100.00;98227.28;5070416;28;20037;-49
2024/03/04 09:30:46;;;;;;;11.20;4.22;;;;;;;10.76;100.00;98226.94;5071627;28;20024;-49
2024/03/04 09:33:12;;;;;;;11.45;4.10;;;;;;;10.75;100.00;98243.72;5071738;28;20041;-49
2024/03/04 09:35:38;;;;;;;7.88;4.75;;;;;;;10.67;100.00;98241.34;5071661;28;20035;-49
2024/03/04 09:38:04;;;;;;;11.52;6.30;;;;;;;10.56;100.00;98243.66;5071339;28;20049;-49
2024/03/04 09:40:31;;;;;;;16.88;11.27;;;;;;;10.51;100.00;98246.09;5071657;28;20028;-49
2024/03/04 09:42:57;;;;;;;14.13;5.18;;;;;;;10.37;100.00;98247.97;5071584;28;20036;-49
2024/03/04 09:45:26;;;;;;;19.88;17.90;;;;;;;10.32;100.00;98242.56;5071752;28;20111;-49
2024/03/04 09:47:56;;;;;;;47.88;42.60;;;;;;;10.44;100.00;98247.13;5071464;28;20400;-49
2024/03/04 09:50:23;;;;;;;40.72;35.45;;;;;;;10.52;100.00;98247.72;5071510;28;20024;-49
2024/03/04 09:52:50;;;;;;;25.13;18.85;;;;;;;10.56;100.00;98251.50;5070239;28;20070;-49
2024/03/04 09:55:17;;;;;;;19.00;10.15;;;;;;;10.64;100.00;98245.19;5074188;28;20082;-48
2024/03/04 09:57:44;;;;;;;18.40;12.73;;;;;;;10.66;100.00;98255.47;5075430;28;20403;-49
2024/03/04 10:00:16;;;;;;;15.95;10.25;;;;;;;10.75;100.00;98251.59;5074186;28;20036;-49
2024/03/04 10:02:43;;;;;;;12.55;5.50;;;;;;;10.72;100.00;98250.19;5074044;28;20024;-47
2024/03/04 10:05:10;;;;;;;6.25;4.15;;;;;;;10.80;100.00;98249.13;5075289;28;20029;-47
2024/03/04 10:07:36;;;;;;;8.40;2.90;;;;;;;10.99;100.00;98247.41;5075275;28;20047;-47
2024/03/04 10:10:08;;;;;;;11.93;3.90;;;;;;;10.98;100.00;98249.19;5075233;28;20028;-49
2024/03/04 10:12:34;;;;;;;6.82;4.10;;;;;;;10.97;100.00;98250.22;5075209;28;20044;-49
2024/03/04 10:15:00;;;;;;;9.63;3.45;;;;;;;11.11;100.00;98243.06;5075177;28;20107;-49
2024/03/04 10:17:29;;;;;;;5.78;2.92;;;;;;;11.28;100.00;98255.66;5075239;28;20435;-49
2024/03/04 10:19:59;;;;;;;6.43;3.65;;;;;;;11.24;100.00;98250.00;5075042;28;20024;-49
2024/03/04 10:22:30;;;;;;;8.80;3.13;;;;;;;11.27;100.00;98252.22;5073697;28;20032;-49
2024/03/04 10:25:06;;;;;;;9.27;2.97;;;;;;;11.35;100.00;98254.56;5074974;28;20024;-49
2024/03/04 10:27:35;;;;;;;16.88;3.20;;;;;;;11.32;100.00;98247.09;5073599;28;20060;-49
2024/03/04 10:30:18;;;;;;;7.82;2.78;;;;;;;11.46;100.00;98244.38;5073520;28;20032;-49
2024/03/04 10:33:06;;;;;;;8.45;3.08;;;;;;;11.35;100.00;98253.78;5073532;28;20032;-49
2024/03/04 10:35:32;;;;;;;5.32;2.53;;;;;;;11.39;100.00;98247.88;5074818;28;20107;-47
2024/03/04 10:38:01;;;;;;;8.52;3.92;;;;;;;11.64;100.00;98248.84;5074505;28;20140;-47
2024/03/04 10:40:27;;;;;;;8.82;3.70;;;;;;;11.85;100.00;98266.00;5074899;28;20398;-49
2024/03/04 10:42:58;;;;;;;8.80;3.28;;;;;;;11.90;100.00;98261.75;5074570;28;20028;-47
2024/03/04 10:45:31;;;;;;;4.78;2.60;;;;;;;11.95;100.00;98259.28;5074509;28;20044;-49
2024/03/04 10:47:58;;;;;;;5.57;2.90;;;;;;;11.86;100.00;98260.53;5073272;28;20768;-49
2024/03/04 10:50:24;;;;;;;12.13;3.53;;;;;;;11.78;100.00;98260.84;5074491;28;20074;-49
2024/03/04 10:52:51;;;;;;;7.72;3.55;;;;;;;11.86;100.00;98267.63;5074592;28;20034;-49
2024/03/04 10:55:18;;;;;;;5.93;3.13;;;;;;;11.85;100.00;98261.56;5074312;28;20024;-49
2024/03/04 10:57:45;;;;;;;5.53;3.13;;;;;;;11.76;100.00;98260.25;5073008;28;20039;-49
2024/03/04 11:02:59;;;;;;;6.45;3.15;;;;;;;11.67;100.00;98259.75;5074364;28;20405;-49
2024/03/04 11:05:28;;;;;;;6.88;2.80;;;;;;;11.84;100.00;98254.69;5072207;28;20028;-49
2024/03/04 11:08:03;;;;;;;9.40;3.33;;;;;;;12.07;100.00;98253.25;5072671;28;20034;-49
2024/03/04 11:10:39;;;;;;;4.13;2.47;;;;;;;12.18;100.00;98261.22;5074362;28;20048;-47
2024/03/04 11:13:27;;;;;;;3.97;2.55;;;;;;;12.29;100.00;98257.03;5074121;28;20510;-46
2024/03/04 11:16:00;;;;;;;9.25;3.20;;;;;;;12.49;100.00;98253.34;5074070;28;20112;-47
2024/03/04 11:19:03;;;;;;;5.32;2.47;;;;;;;12.70;100.00;98257.31;5072590;28;20042;-48
2024/03/04 11:21:31;;;;;;;8.48;4.32;;;;;;;12.78;100.00;98252.53;5072790;28;20528;-49
2024/03/04 11:23:58;;;;;;;10.15;3.35;;;;;;;12.97;100.00;98247.97;5072648;28;20154;-49
2024/03/04 11:26:24;;;;;;;7.00;3.83;;;;;;;13.27;100.00;98254.22;5073737;28;20483;-49